sensor_id;sensor_type;location;lat;lon;timestamp;temperature;humidity
12845;DHT22;68700;48.534;9.196;2023-11-19T00:02:02;8.20;1.00
12845;DHT22;68700;48.534;9.196;2023-11-19T00:05:24;8.30;1.00
12845;DHT22;68700;48.534;9.196;2023-11-19T00:08:45;8.30;1.00
12845;DHT22;68700;48.534;9.196;2023-11-19T00:12:08;8.30;1.00
12845;DHT22;68700;48.534;9.196;2023-11-19T00:15:31;8.30;1.00
12845;DHT22;68700;48.534;9.196;2023-11-19T00:18:53;8.40;1.00
12845;DHT22;68700;48.534;9.196;2023-11-19T00:22:15;8.40;1.00
12845;DHT22;68700;48.534;9.196;2023-11-19T00:25:37;8.40;1.00
12845;DHT22;68700;48.534;9.196;2023-11-19T00:29:00;8.40;1.00
12845;DHT22;68700;48.534;9.196;2023-11-19T00:32:24;8.40;1.00
12845;DHT22;68700;48.534;9.196;2023-11-19T00:35:46;8.40;1.00
12845;DHT22;68700;48.534;9.196;2023-11-19T00:39:07;8.50;1.00
12845;DHT22;68700;48.534;9.196;2023-11-19T00:42:29;8.50;1.00
12845;DHT22;68700;48.534;9.196;2023-11-19T00:45:52;8.80;1.00
12845;DHT22;68700;48.534;9.196;2023-11-19T00:49:15;9.00;1.00
12845;DHT22;68700;48.534;9.196;2023-11-19T00:52:37;9.10;1.00
12845;DHT22;68700;48.534;9.196;2023-11-19T00:55:59;9.20;1.00
12845;DHT22;68700;48.534;9.196;2023-11-19T00:59:21;9.30;1.00
12845;DHT22;68700;48.534;9.196;2023-11-19T01:02:43;9.30;1.00
12845;DHT22;68700;48.534;9.196;2023-11-19T01:06:07;9.50;1.00
12845;DHT22;68700;48.534;9.196;2023-11-19T01:09:29;9.50;1.00
12845;DHT22;68700;48.534;9.196;2023-11-19T01:12:52;9.50;1.00
12845;DHT22;68700;48.534;9.196;2023-11-19T01:16:14;9.50;1.00
12845;DHT22;68700;48.534;9.196;2023-11-19T01:19:36;9.60;1.00
12845;DHT22;68700;48.534;9.196;2023-11-19T01:22:59;9.60;1.40
12845;DHT22;68700;48.534;9.196;2023-11-19T01:26:21;9.70;99.90
12845;DHT22;68700;48.534;9.196;2023-11-19T01:29:43;9.70;99.90
12845;DHT22;68700;48.534;9.196;2023-11-19T01:33:04;9.80;99.90
12845;DHT22;68700;48.534;9.196;2023-11-19T01:36:28;9.80;1.00
12845;DHT22;68700;48.534;9.196;2023-11-19T01:39:51;9.80;1.00
12845;DHT22;68700;48.534;9.196;2023-11-19T01:43:31;9.70;1.00
12845;DHT22;68700;48.534;9.196;2023-11-19T01:46:53;9.70;1.00
12845;DHT22;68700;48.534;9.196;2023-11-19T01:50:15;9.80;1.00
12845;DHT22;68700;48.534;9.196;2023-11-19T01:53:39;9.80;1.00
12845;DHT22;68700;48.534;9.196;2023-11-19T01:57:03;9.80;1.00
12845;DHT22;68700;48.534;9.196;2023-11-19T02:00:25;9.80;1.00
12845;DHT22;68700;48.534;9.196;2023-11-19T02:03:47;9.90;1.00
12845;DHT22;68700;48.534;9.196;2023-11-19T02:07:09;9.90;1.00
12845;DHT22;68700;48.534;9.196;2023-11-19T02:10:31;10.00;1.00
12845;DHT22;68700;48.534;9.196;2023-11-19T02:13:54;10.10;1.00
12845;DHT22;68700;48.534;9.196;2023-11-19T02:17:30;10.10;1.00
12845;DHT22;68700;48.534;9.196;2023-11-19T02:20:52;10.10;1.00
12845;DHT22;68700;48.534;9.196;2023-11-19T02:24:16;10.10;1.00
12845;DHT22;68700;48.534;9.196;2023-11-19T02:27:49;10.10;1.00
12845;DHT22;68700;48.534;9.196;2023-11-19T02:31:13;10.20;1.00
12845;DHT22;68700;48.534;9.196;2023-11-19T02:34:35;10.10;1.00
12845;DHT22;68700;48.534;9.196;2023-11-19T02:37:57;10.10;1.00
12845;DHT22;68700;48.534;9.196;2023-11-19T02:41:19;10.10;1.00
12845;DHT22;68700;48.534;9.196;2023-11-19T02:44:45;10.20;1.00
12845;DHT22;68700;48.534;9.196;2023-11-19T02:48:06;10.20;1.00
12845;DHT22;68700;48.534;9.196;2023-11-19T02:51:30;10.20;1.00
12845;DHT22;68700;48.534;9.196;2023-11-19T02:54:52;10.30;1.00
12845;DHT22;68700;48.534;9.196;2023-11-19T02:58:14;10.20;1.00
12845;DHT22;68700;48.534;9.196;2023-11-19T03:01:45;10.30;1.00
12845;DHT22;68700;48.534;9.196;2023-11-19T03:05:10;10.30;1.00
12845;DHT22;68700;48.534;9.196;2023-11-19T03:08:36;10.20;1.00
12845;DHT22;68700;48.534;9.196;2023-11-19T03:11:57;10.30;1.00
12845;DHT22;68700;48.534;9.196;2023-11-19T03:15:19;10.30;1.00
12845;DHT22;68700;48.534;9.196;2023-11-19T03:18:43;10.30;1.00
12845;DHT22;68700;48.534;9.196;2023-11-19T03:22:04;10.30;1.00
12845;DHT22;68700;48.534;9.196;2023-11-19T03:25:28;10.40;1.00
12845;DHT22;68700;48.534;9.196;2023-11-19T03:28:54;10.40;1.00
12845;DHT22;68700;48.534;9.196;2023-11-19T03:32:17;10.40;1.00
12845;DHT22;68700;48.534;9.196;2023-11-19T03:35:40;10.40;1.00
12845;DHT22;68700;48.534;9.196;2023-11-19T03:39:02;10.40;1.00
12845;DHT22;68700;48.534;9.196;2023-11-19T03:42:24;10.40;1.00
12845;DHT22;68700;48.534;9.196;2023-11-19T03:45:46;10.40;1.00
12845;DHT22;68700;48.534;9.196;2023-11-19T03:49:08;10.40;1.00
12845;DHT22;68700;48.534;9.196;2023-11-19T03:52:31;10.40;1.00
12845;DHT22;68700;48.534;9.196;2023-11-19T03:55:53;10.40;1.00
12845;DHT22;68700;48.534;9.196;2023-11-19T03:59:15;10.50;1.00
12845;DHT22;68700;48.534;9.196;2023-11-19T04:02:37;10.40;1.00
12845;DHT22;68700;48.534;9.196;2023-11-19T04:05:58;10.40;1.00
12845;DHT22;68700;48.534;9.196;2023-11-19T04:09:22;10.40;1.00
12845;DHT22;68700;48.534;9.196;2023-11-19T04:12:44;10.40;1.00
12845;DHT22;68700;48.534;9.196;2023-11-19T04:16:06;10.40;1.00
12845;DHT22;68700;48.534;9.196;2023-11-19T04:19:28;10.40;1.00
12845;DHT22;68700;48.534;9.196;2023-11-19T04:22:50;10.40;1.00
12845;DHT22;68700;48.534;9.196;2023-11-19T04:26:13;10.40;1.00
12845;DHT22;68700;48.534;9.196;2023-11-19T04:29:36;10.40;1.00
12845;DHT22;68700;48.534;9.196;2023-11-19T04:32:57;10.40;1.00
12845;DHT22;68700;48.534;9.196;2023-11-19T04:36:19;10.50;1.00
12845;DHT22;68700;48.534;9.196;2023-11-19T04:39:44;10.50;1.00
12845;DHT22;68700;48.534;9.196;2023-11-19T04:43:08;10.60;1.00
12845;DHT22;68700;48.534;9.196;2023-11-19T04:46:29;10.70;1.00
12845;DHT22;68700;48.534;9.196;2023-11-19T04:49:51;10.70;1.00
12845;DHT22;68700;48.534;9.196;2023-11-19T04:53:13;10.80;1.00
12845;DHT22;68700;48.534;9.196;2023-11-19T04:56:36;10.80;1.00
12845;DHT22;68700;48.534;9.196;2023-11-19T04:59:59;10.90;1.00
12845;DHT22;68700;48.534;9.196;2023-11-19T05:03:21;11.00;1.00
12845;DHT22;68700;48.534;9.196;2023-11-19T05:06:43;11.00;1.00
12845;DHT22;68700;48.534;9.196;2023-11-19T05:10:06;11.00;1.00
12845;DHT22;68700;48.534;9.196;2023-11-19T05:13:29;11.10;1.00
12845;DHT22;68700;48.534;9.196;2023-11-19T05:16:52;11.10;99.90
12845;DHT22;68700;48.534;9.196;2023-11-19T05:20:14;11.10;1.00
12845;DHT22;68700;48.534;9.196;2023-11-19T05:23:36;11.10;99.90
12845;DHT22;68700;48.534;9.196;2023-11-19T05:26:57;11.20;99.90
12845;DHT22;68700;48.534;9.196;2023-11-19T05:30:19;11.20;99.90
12845;DHT22;68700;48.534;9.196;2023-11-19T05:33:42;11.30;99.90
12845;DHT22;68700;48.534;9.196;2023-11-19T05:37:04;11.40;99.90
12845;DHT22;68700;48.534;9.196;2023-11-19T05:40:27;11.40;99.90
12845;DHT22;68700;48.534;9.196;2023-11-19T05:43:48;11.40;99.90
12845;DHT22;68700;48.534;9.196;2023-11-19T05:47:10;11.40;99.90
12845;DHT22;68700;48.534;9.196;2023-11-19T05:50:33;11.50;99.90
12845;DHT22;68700;48.534;9.196;2023-11-19T05:53:55;11.50;99.90
12845;DHT22;68700;48.534;9.196;2023-11-19T05:57:17;11.50;99.90
12845;DHT22;68700;48.534;9.196;2023-11-19T06:00:43;11.50;99.90
12845;DHT22;68700;48.534;9.196;2023-11-19T06:04:05;11.50;99.90
12845;DHT22;68700;48.534;9.196;2023-11-19T06:07:28;11.50;99.90
12845;DHT22;68700;48.534;9.196;2023-11-19T06:10:50;11.40;99.90
12845;DHT22;68700;48.534;9.196;2023-11-19T06:14:12;11.40;99.90
12845;DHT22;68700;48.534;9.196;2023-11-19T06:17:34;11.40;99.90
12845;DHT22;68700;48.534;9.196;2023-11-19T06:20:55;11.40;99.90
12845;DHT22;68700;48.534;9.196;2023-11-19T06:24:19;11.50;99.90
12845;DHT22;68700;48.534;9.196;2023-11-19T06:27:44;11.40;99.90
12845;DHT22;68700;48.534;9.196;2023-11-19T06:31:05;11.40;99.90
12845;DHT22;68700;48.534;9.196;2023-11-19T06:34:28;11.40;1.00
12845;DHT22;68700;48.534;9.196;2023-11-19T06:37:49;11.40;1.00
12845;DHT22;68700;48.534;9.196;2023-11-19T06:41:13;11.40;1.00
12845;DHT22;68700;48.534;9.196;2023-11-19T06:44:35;11.30;1.00
12845;DHT22;68700;48.534;9.196;2023-11-19T06:47:56;11.40;1.00
12845;DHT22;68700;48.534;9.196;2023-11-19T06:51:19;11.30;1.00
12845;DHT22;68700;48.534;9.196;2023-11-19T06:54:41;11.40;1.00
12845;DHT22;68700;48.534;9.196;2023-11-19T06:58:05;11.40;1.00
12845;DHT22;68700;48.534;9.196;2023-11-19T07:01:27;11.50;1.00
12845;DHT22;68700;48.534;9.196;2023-11-19T07:04:51;11.50;1.00
12845;DHT22;68700;48.534;9.196;2023-11-19T07:08:13;11.50;1.00
12845;DHT22;68700;48.534;9.196;2023-11-19T07:11:38;11.60;1.00
12845;DHT22;68700;48.534;9.196;2023-11-19T07:15:08;11.60;1.00
12845;DHT22;68700;48.534;9.196;2023-11-19T07:18:30;11.70;1.00
12845;DHT22;68700;48.534;9.196;2023-11-19T07:21:55;11.70;1.00
12845;DHT22;68700;48.534;9.196;2023-11-19T07:25:17;11.70;1.00
12845;DHT22;68700;48.534;9.196;2023-11-19T07:28:39;11.70;1.00
12845;DHT22;68700;48.534;9.196;2023-11-19T07:32:03;11.80;1.00
12845;DHT22;68700;48.534;9.196;2023-11-19T07:35:25;11.80;1.00
12845;DHT22;68700;48.534;9.196;2023-11-19T07:38:47;11.80;1.00
12845;DHT22;68700;48.534;9.196;2023-11-19T07:42:09;11.80;1.00
12845;DHT22;68700;48.534;9.196;2023-11-19T07:45:31;11.80;1.00
12845;DHT22;68700;48.534;9.196;2023-11-19T07:48:54;11.90;1.00
12845;DHT22;68700;48.534;9.196;2023-11-19T07:52:16;11.90;99.90
12845;DHT22;68700;48.534;9.196;2023-11-19T07:55:37;12.00;99.90
12845;DHT22;68700;48.534;9.196;2023-11-19T07:58:59;12.00;99.90
12845;DHT22;68700;48.534;9.196;2023-11-19T08:02:21;12.00;99.90
12845;DHT22;68700;48.534;9.196;2023-11-19T08:05:45;12.00;99.90
12845;DHT22;68700;48.534;9.196;2023-11-19T08:09:07;12.10;99.90
12845;DHT22;68700;48.534;9.196;2023-11-19T08:12:33;12.10;99.90
12845;DHT22;68700;48.534;9.196;2023-11-19T08:15:55;12.10;99.90
12845;DHT22;68700;48.534;9.196;2023-11-19T08:19:18;12.20;99.90
12845;DHT22;68700;48.534;9.196;2023-11-19T08:22:41;12.30;99.90
12845;DHT22;68700;48.534;9.196;2023-11-19T08:26:04;12.30;99.90
12845;DHT22;68700;48.534;9.196;2023-11-19T08:29:26;12.30;99.90
12845;DHT22;68700;48.534;9.196;2023-11-19T08:32:49;12.40;99.90
12845;DHT22;68700;48.534;9.196;2023-11-19T08:36:15;12.30;99.90
12845;DHT22;68700;48.534;9.196;2023-11-19T08:39:39;12.40;99.90
12845;DHT22;68700;48.534;9.196;2023-11-19T08:43:02;12.50;99.90
12845;DHT22;68700;48.534;9.196;2023-11-19T08:46:24;12.70;99.90
12845;DHT22;68700;48.534;9.196;2023-11-19T08:49:46;12.80;99.90
12845;DHT22;68700;48.534;9.196;2023-11-19T08:53:08;13.00;99.90
12845;DHT22;68700;48.534;9.196;2023-11-19T08:56:31;13.00;99.90
12845;DHT22;68700;48.534;9.196;2023-11-19T08:59:55;13.10;99.90
12845;DHT22;68700;48.534;9.196;2023-11-19T09:03:17;13.60;64.90
12845;DHT22;68700;48.534;9.196;2023-11-19T09:06:38;13.60;92.30
12845;DHT22;68700;48.534;9.196;2023-11-19T09:10:01;13.40;99.90
12845;DHT22;68700;48.534;9.196;2023-11-19T09:13:24;13.40;99.90
12845;DHT22;68700;48.534;9.196;2023-11-19T09:16:46;13.30;99.90
12845;DHT22;68700;48.534;9.196;2023-11-19T09:20:08;13.40;99.90
12845;DHT22;68700;48.534;9.196;2023-11-19T09:23:35;13.50;99.90
12845;DHT22;68700;48.534;9.196;2023-11-19T09:26:59;13.60;99.90
12845;DHT22;68700;48.534;9.196;2023-11-19T09:30:22;13.60;87.20
12845;DHT22;68700;48.534;9.196;2023-11-19T09:33:45;13.70;70.60
12845;DHT22;68700;48.534;9.196;2023-11-19T09:37:07;13.70;90.80
12845;DHT22;68700;48.534;9.196;2023-11-19T09:40:29;13.70;99.30
12845;DHT22;68700;48.534;9.196;2023-11-19T09:43:52;13.90;15.30
12845;DHT22;68700;48.534;9.196;2023-11-19T09:47:17;13.90;60.50
12845;DHT22;68700;48.534;9.196;2023-11-19T09:50:41;14.10;13.50
12845;DHT22;68700;48.534;9.196;2023-11-19T09:54:03;14.10;25.20
12845;DHT22;68700;48.534;9.196;2023-11-19T09:57:24;14.00;29.90
12845;DHT22;68700;48.534;9.196;2023-11-19T10:00:47;14.20;31.80
12845;DHT22;68700;48.534;9.196;2023-11-19T10:04:13;14.40;1.00
12845;DHT22;68700;48.534;9.196;2023-11-19T10:07:36;14.30;1.00
12845;DHT22;68700;48.534;9.196;2023-11-19T10:10:58;14.30;1.00
12845;DHT22;68700;48.534;9.196;2023-11-19T10:14:23;14.40;1.00
12845;DHT22;68700;48.534;9.196;2023-11-19T10:17:45;14.50;1.00
12845;DHT22;68700;48.534;9.196;2023-11-19T10:21:12;15.10;1.00
12845;DHT22;68700;48.534;9.196;2023-11-19T10:24:37;16.60;1.00
12845;DHT22;68700;48.534;9.196;2023-11-19T10:28:01;17.10;1.00
12845;DHT22;68700;48.534;9.196;2023-11-19T10:31:23;16.90;1.00
12845;DHT22;68700;48.534;9.196;2023-11-19T10:34:46;15.90;1.00
12845;DHT22;68700;48.534;9.196;2023-11-19T10:38:15;15.50;1.00
12845;DHT22;68700;48.534;9.196;2023-11-19T10:41:40;15.00;1.00
12845;DHT22;68700;48.534;9.196;2023-11-19T10:45:07;15.00;1.00
12845;DHT22;68700;48.534;9.196;2023-11-19T10:48:45;14.90;1.00
12845;DHT22;68700;48.534;9.196;2023-11-19T10:52:08;15.10;1.00
12845;DHT22;68700;48.534;9.196;2023-11-19T10:55:33;15.00;1.00
12845;DHT22;68700;48.534;9.196;2023-11-19T10:58:55;15.00;1.00
12845;DHT22;68700;48.534;9.196;2023-11-19T11:02:24;15.10;1.00
12845;DHT22;68700;48.534;9.196;2023-11-19T11:05:48;15.50;1.00
12845;DHT22;68700;48.534;9.196;2023-11-19T11:09:11;15.50;1.00
12845;DHT22;68700;48.534;9.196;2023-11-19T11:12:36;15.70;1.00
12845;DHT22;68700;48.534;9.196;2023-11-19T11:15:58;15.70;1.00
12845;DHT22;68700;48.534;9.196;2023-11-19T11:19:20;15.60;1.00
12845;DHT22;68700;48.534;9.196;2023-11-19T11:22:52;15.60;1.00
12845;DHT22;68700;48.534;9.196;2023-11-19T11:26:41;16.50;1.00
12845;DHT22;68700;48.534;9.196;2023-11-19T11:30:20;17.40;1.00
12845;DHT22;68700;48.534;9.196;2023-11-19T11:34:06;18.00;1.00
12845;DHT22;68700;48.534;9.196;2023-11-19T11:37:37;17.50;1.00
12845;DHT22;68700;48.534;9.196;2023-11-19T11:41:17;18.90;1.00
12845;DHT22;68700;48.534;9.196;2023-11-19T11:44:59;18.60;1.00
12845;DHT22;68700;48.534;9.196;2023-11-19T11:48:26;18.50;1.00
12845;DHT22;68700;48.534;9.196;2023-11-19T11:52:00;18.20;1.00
12845;DHT22;68700;48.534;9.196;2023-11-19T11:55:23;18.20;1.00
12845;DHT22;68700;48.534;9.196;2023-11-19T11:58:46;17.30;1.00
12845;DHT22;68700;48.534;9.196;2023-11-19T12:02:09;16.30;1.00
12845;DHT22;68700;48.534;9.196;2023-11-19T12:05:33;16.60;1.00
12845;DHT22;68700;48.534;9.196;2023-11-19T12:08:59;16.40;1.00
12845;DHT22;68700;48.534;9.196;2023-11-19T12:12:23;16.50;1.00
12845;DHT22;68700;48.534;9.196;2023-11-19T12:16:10;16.40;1.00
12845;DHT22;68700;48.534;9.196;2023-11-19T12:19:32;16.70;1.00
12845;DHT22;68700;48.534;9.196;2023-11-19T12:22:55;16.30;1.00
12845;DHT22;68700;48.534;9.196;2023-11-19T12:26:34;16.20;1.00
12845;DHT22;68700;48.534;9.196;2023-11-19T12:29:56;16.10;1.00
12845;DHT22;68700;48.534;9.196;2023-11-19T12:33:18;16.30;1.00
12845;DHT22;68700;48.534;9.196;2023-11-19T12:36:41;17.40;1.00
12845;DHT22;68700;48.534;9.196;2023-11-19T12:40:14;16.90;1.00
12845;DHT22;68700;48.534;9.196;2023-11-19T12:43:37;16.60;1.00
12845;DHT22;68700;48.534;9.196;2023-11-19T12:47:01;17.50;1.00
12845;DHT22;68700;48.534;9.196;2023-11-19T12:50:23;17.10;1.00
12845;DHT22;68700;48.534;9.196;2023-11-19T12:53:48;17.50;1.00
12845;DHT22;68700;48.534;9.196;2023-11-19T12:57:12;17.60;1.00
12845;DHT22;68700;48.534;9.196;2023-11-19T13:00:34;16.90;1.00
12845;DHT22;68700;48.534;9.196;2023-11-19T13:03:55;17.10;1.00
12845;DHT22;68700;48.534;9.196;2023-11-19T13:07:21;16.50;1.00
12845;DHT22;68700;48.534;9.196;2023-11-19T13:10:51;16.50;1.00
12845;DHT22;68700;48.534;9.196;2023-11-19T13:14:15;17.30;1.00
12845;DHT22;68700;48.534;9.196;2023-11-19T13:17:37;17.80;1.00
12845;DHT22;68700;48.534;9.196;2023-11-19T13:20:59;18.30;1.00
12845;DHT22;68700;48.534;9.196;2023-11-19T13:24:21;18.70;1.00
12845;DHT22;68700;48.534;9.196;2023-11-19T13:27:46;18.90;1.00
12845;DHT22;68700;48.534;9.196;2023-11-19T13:31:09;19.30;1.00
12845;DHT22;68700;48.534;9.196;2023-11-19T13:34:30;18.10;1.00
12845;DHT22;68700;48.534;9.196;2023-11-19T13:37:52;17.60;1.00
12845;DHT22;68700;48.534;9.196;2023-11-19T13:41:14;17.20;1.00
12845;DHT22;68700;48.534;9.196;2023-11-19T13:44:36;16.50;1.00
12845;DHT22;68700;48.534;9.196;2023-11-19T13:47:59;17.10;1.00
12845;DHT22;68700;48.534;9.196;2023-11-19T13:51:21;16.70;1.00
12845;DHT22;68700;48.534;9.196;2023-11-19T13:54:43;16.80;1.00
12845;DHT22;68700;48.534;9.196;2023-11-19T13:58:05;16.50;1.00
12845;DHT22;68700;48.534;9.196;2023-11-19T14:01:27;16.50;1.00
12845;DHT22;68700;48.534;9.196;2023-11-19T14:04:50;16.70;1.00
12845;DHT22;68700;48.534;9.196;2023-11-19T14:08:12;16.30;1.00
12845;DHT22;68700;48.534;9.196;2023-11-19T14:11:34;16.10;1.00
12845;DHT22;68700;48.534;9.196;2023-11-19T14:14:56;16.10;1.00
12845;DHT22;68700;48.534;9.196;2023-11-19T14:18:18;15.90;1.00
12845;DHT22;68700;48.534;9.196;2023-11-19T14:21:41;15.60;1.00
12845;DHT22;68700;48.534;9.196;2023-11-19T14:25:05;15.60;1.00
12845;DHT22;68700;48.534;9.196;2023-11-19T14:28:30;15.60;1.00
12845;DHT22;68700;48.534;9.196;2023-11-19T14:31:52;15.90;1.00
12845;DHT22;68700;48.534;9.196;2023-11-19T14:35:14;15.80;1.00
12845;DHT22;68700;48.534;9.196;2023-11-19T14:38:37;15.30;1.00
12845;DHT22;68700;48.534;9.196;2023-11-19T14:42:02;15.40;1.00
12845;DHT22;68700;48.534;9.196;2023-11-19T14:45:25;15.10;1.00
12845;DHT22;68700;48.534;9.196;2023-11-19T14:48:47;15.00;1.00
12845;DHT22;68700;48.534;9.196;2023-11-19T14:52:09;15.00;1.00
12845;DHT22;68700;48.534;9.196;2023-11-19T14:55:33;14.90;1.00
12845;DHT22;68700;48.534;9.196;2023-11-19T14:58:55;15.30;1.00
12845;DHT22;68700;48.534;9.196;2023-11-19T15:02:17;15.20;1.00
12845;DHT22;68700;48.534;9.196;2023-11-19T15:05:38;15.50;1.00
12845;DHT22;68700;48.534;9.196;2023-11-19T15:09:00;15.50;1.00
12845;DHT22;68700;48.534;9.196;2023-11-19T15:12:24;15.80;1.00
12845;DHT22;68700;48.534;9.196;2023-11-19T15:15:47;15.40;1.00
12845;DHT22;68700;48.534;9.196;2023-11-19T15:19:09;15.20;1.00
12845;DHT22;68700;48.534;9.196;2023-11-19T15:22:33;14.90;1.00
12845;DHT22;68700;48.534;9.196;2023-11-19T15:25:54;14.90;1.00
12845;DHT22;68700;48.534;9.196;2023-11-19T15:29:18;14.70;1.00
12845;DHT22;68700;48.534;9.196;2023-11-19T15:32:40;14.50;1.00
12845;DHT22;68700;48.534;9.196;2023-11-19T15:36:03;14.50;1.00
12845;DHT22;68700;48.534;9.196;2023-11-19T15:39:28;14.30;1.00
12845;DHT22;68700;48.534;9.196;2023-11-19T15:42:50;14.30;1.00
12845;DHT22;68700;48.534;9.196;2023-11-19T15:46:15;14.30;1.00
12845;DHT22;68700;48.534;9.196;2023-11-19T15:49:37;14.20;1.00
12845;DHT22;68700;48.534;9.196;2023-11-19T15:52:58;14.10;1.00
12845;DHT22;68700;48.534;9.196;2023-11-19T15:56:22;14.10;1.00
12845;DHT22;68700;48.534;9.196;2023-11-19T15:59:44;14.00;1.00
12845;DHT22;68700;48.534;9.196;2023-11-19T16:03:07;13.90;1.00
12845;DHT22;68700;48.534;9.196;2023-11-19T16:06:29;13.90;1.00
12845;DHT22;68700;48.534;9.196;2023-11-19T16:09:50;13.80;1.00
12845;DHT22;68700;48.534;9.196;2023-11-19T16:13:13;13.70;1.00
12845;DHT22;68700;48.534;9.196;2023-11-19T16:16:34;13.60;1.00
12845;DHT22;68700;48.534;9.196;2023-11-19T16:19:58;13.60;1.00
12845;DHT22;68700;48.534;9.196;2023-11-19T16:23:20;13.70;1.00
12845;DHT22;68700;48.534;9.196;2023-11-19T16:26:42;13.70;1.00
12845;DHT22;68700;48.534;9.196;2023-11-19T16:30:04;13.60;1.00
12845;DHT22;68700;48.534;9.196;2023-11-19T16:33:26;13.60;1.00
12845;DHT22;68700;48.534;9.196;2023-11-19T16:36:50;13.60;1.00
12845;DHT22;68700;48.534;9.196;2023-11-19T16:40:12;13.40;1.00
12845;DHT22;68700;48.534;9.196;2023-11-19T16:43:34;13.40;1.00
12845;DHT22;68700;48.534;9.196;2023-11-19T16:46:56;13.40;1.00
12845;DHT22;68700;48.534;9.196;2023-11-19T16:50:18;13.20;1.00
12845;DHT22;68700;48.534;9.196;2023-11-19T16:53:46;13.20;1.00
12845;DHT22;68700;48.534;9.196;2023-11-19T16:57:08;13.20;1.00
12845;DHT22;68700;48.534;9.196;2023-11-19T17:00:30;13.10;1.00
12845;DHT22;68700;48.534;9.196;2023-11-19T17:03:57;13.10;1.00
12845;DHT22;68700;48.534;9.196;2023-11-19T17:07:19;13.00;1.00
12845;DHT22;68700;48.534;9.196;2023-11-19T17:10:44;13.00;1.00
12845;DHT22;68700;48.534;9.196;2023-11-19T17:14:06;12.90;1.00
12845;DHT22;68700;48.534;9.196;2023-11-19T17:17:27;12.80;1.00
12845;DHT22;68700;48.534;9.196;2023-11-19T17:20:54;12.70;1.00
12845;DHT22;68700;48.534;9.196;2023-11-19T17:24:16;12.70;1.00
12845;DHT22;68700;48.534;9.196;2023-11-19T17:27:39;12.60;1.00
12845;DHT22;68700;48.534;9.196;2023-11-19T17:31:03;12.60;1.00
12845;DHT22;68700;48.534;9.196;2023-11-19T17:34:25;12.40;1.00
12845;DHT22;68700;48.534;9.196;2023-11-19T17:37:47;12.40;1.00
12845;DHT22;68700;48.534;9.196;2023-11-19T17:41:09;12.30;1.00
12845;DHT22;68700;48.534;9.196;2023-11-19T17:44:32;12.20;1.00
12845;DHT22;68700;48.534;9.196;2023-11-19T17:47:55;12.10;1.00
12845;DHT22;68700;48.534;9.196;2023-11-19T17:51:17;11.90;1.00
12845;DHT22;68700;48.534;9.196;2023-11-19T17:54:39;11.70;1.00
12845;DHT22;68700;48.534;9.196;2023-11-19T17:58:01;11.60;1.00
12845;DHT22;68700;48.534;9.196;2023-11-19T18:01:25;11.50;1.00
12845;DHT22;68700;48.534;9.196;2023-11-19T18:04:47;11.30;1.00
12845;DHT22;68700;48.534;9.196;2023-11-19T18:08:09;11.20;1.00
12845;DHT22;68700;48.534;9.196;2023-11-19T18:11:36;11.10;1.00
12845;DHT22;68700;48.534;9.196;2023-11-19T18:14:58;10.90;1.00
12845;DHT22;68700;48.534;9.196;2023-11-19T18:18:21;10.80;1.00
12845;DHT22;68700;48.534;9.196;2023-11-19T18:21:43;10.70;1.00
12845;DHT22;68700;48.534;9.196;2023-11-19T18:25:05;10.70;1.00
12845;DHT22;68700;48.534;9.196;2023-11-19T18:28:30;10.70;1.00
12845;DHT22;68700;48.534;9.196;2023-11-19T18:31:52;10.70;1.00
12845;DHT22;68700;48.534;9.196;2023-11-19T18:35:17;10.70;1.00
12845;DHT22;68700;48.534;9.196;2023-11-19T18:38:43;10.60;1.00
12845;DHT22;68700;48.534;9.196;2023-11-19T18:42:05;10.60;1.00
12845;DHT22;68700;48.534;9.196;2023-11-19T18:45:27;10.40;1.00
12845;DHT22;68700;48.534;9.196;2023-11-19T18:48:49;10.40;1.00
12845;DHT22;68700;48.534;9.196;2023-11-19T18:52:14;10.30;1.00
12845;DHT22;68700;48.534;9.196;2023-11-19T18:55:35;10.30;1.00
12845;DHT22;68700;48.534;9.196;2023-11-19T18:58:57;10.30;1.00
12845;DHT22;68700;48.534;9.196;2023-11-19T19:02:20;10.30;1.00
12845;DHT22;68700;48.534;9.196;2023-11-19T19:05:42;10.40;1.00
12845;DHT22;68700;48.534;9.196;2023-11-19T19:09:05;10.50;1.00
12845;DHT22;68700;48.534;9.196;2023-11-19T19:12:27;10.60;1.00
12845;DHT22;68700;48.534;9.196;2023-11-19T19:15:49;10.60;1.00
12845;DHT22;68700;48.534;9.196;2023-11-19T19:19:11;10.50;1.00
12845;DHT22;68700;48.534;9.196;2023-11-19T19:22:33;10.50;1.00
12845;DHT22;68700;48.534;9.196;2023-11-19T19:25:56;10.50;1.00
12845;DHT22;68700;48.534;9.196;2023-11-19T19:29:18;10.40;1.00
12845;DHT22;68700;48.534;9.196;2023-11-19T19:32:40;10.30;1.00
12845;DHT22;68700;48.534;9.196;2023-11-19T19:36:06;10.20;1.00
12845;DHT22;68700;48.534;9.196;2023-11-19T19:39:29;10.30;1.00
12845;DHT22;68700;48.534;9.196;2023-11-19T19:42:54;10.30;1.00
12845;DHT22;68700;48.534;9.196;2023-11-19T19:46:18;10.50;1.00
12845;DHT22;68700;48.534;9.196;2023-11-19T19:49:40;10.60;1.00
12845;DHT22;68700;48.534;9.196;2023-11-19T19:53:03;10.70;1.00
12845;DHT22;68700;48.534;9.196;2023-11-19T19:56:24;10.70;1.00
12845;DHT22;68700;48.534;9.196;2023-11-19T19:59:48;10.80;1.00
12845;DHT22;68700;48.534;9.196;2023-11-19T20:03:10;10.90;1.00
12845;DHT22;68700;48.534;9.196;2023-11-19T20:06:36;10.90;1.00
12845;DHT22;68700;48.534;9.196;2023-11-19T20:09:58;10.90;1.00
12845;DHT22;68700;48.534;9.196;2023-11-19T20:13:20;10.90;1.00
12845;DHT22;68700;48.534;9.196;2023-11-19T20:16:44;10.90;1.00
12845;DHT22;68700;48.534;9.196;2023-11-19T20:20:07;11.00;1.00
12845;DHT22;68700;48.534;9.196;2023-11-19T20:23:31;11.00;1.00
12845;DHT22;68700;48.534;9.196;2023-11-19T20:26:53;11.00;1.00
12845;DHT22;68700;48.534;9.196;2023-11-19T20:30:15;11.00;1.00
12845;DHT22;68700;48.534;9.196;2023-11-19T20:33:39;10.90;1.00
12845;DHT22;68700;48.534;9.196;2023-11-19T20:37:00;10.80;1.00
12845;DHT22;68700;48.534;9.196;2023-11-19T20:40:23;10.90;1.00
12845;DHT22;68700;48.534;9.196;2023-11-19T20:43:47;10.70;1.00
12845;DHT22;68700;48.534;9.196;2023-11-19T20:47:09;10.40;1.00
12845;DHT22;68700;48.534;9.196;2023-11-19T20:50:32;10.40;1.00
12845;DHT22;68700;48.534;9.196;2023-11-19T20:53:54;10.50;1.00
12845;DHT22;68700;48.534;9.196;2023-11-19T20:57:16;10.70;1.00
12845;DHT22;68700;48.534;9.196;2023-11-19T21:00:38;10.80;1.00
12845;DHT22;68700;48.534;9.196;2023-11-19T21:04:08;10.70;1.00
12845;DHT22;68700;48.534;9.196;2023-11-19T21:07:31;10.50;1.00
12845;DHT22;68700;48.534;9.196;2023-11-19T21:10:53;10.50;1.00
12845;DHT22;68700;48.534;9.196;2023-11-19T21:14:15;10.80;1.00
12845;DHT22;68700;48.534;9.196;2023-11-19T21:17:38;10.90;1.00
12845;DHT22;68700;48.534;9.196;2023-11-19T21:21:00;11.10;1.00
12845;DHT22;68700;48.534;9.196;2023-11-19T21:24:23;11.10;1.00
12845;DHT22;68700;48.534;9.196;2023-11-19T21:27:45;11.00;1.00
12845;DHT22;68700;48.534;9.196;2023-11-19T21:31:07;11.00;1.00
12845;DHT22;68700;48.534;9.196;2023-11-19T21:34:29;11.30;1.00
12845;DHT22;68700;48.534;9.196;2023-11-19T21:37:50;11.50;1.00
12845;DHT22;68700;48.534;9.196;2023-11-19T21:41:14;11.40;1.00
12845;DHT22;68700;48.534;9.196;2023-11-19T21:44:36;11.30;1.00